createdAt,value
2022-12-19T00:01:35.438Z,45749.97
2022-12-19T00:04:07.792Z,45777.94
2022-12-19T00:06:36.263Z,45761.97
2022-12-19T00:09:02.984Z,45759.97
2022-12-19T00:11:29.747Z,45739.97
2022-12-19T00:13:56.212Z,45727.97
2022-12-19T00:16:25.435Z,45725.97
2022-12-19T00:18:55.252Z,45749.97
2022-12-19T00:21:24.707Z,45761.97
2022-12-19T00:23:52.168Z,45743.97
2022-12-19T00:26:21.183Z,45737.97
2022-12-19T00:28:53.593Z,45737.97
2022-12-19T00:31:21.881Z,45751.97
2022-12-19T00:33:49.244Z,45737.97
2022-12-19T00:36:24.414Z,45743.97
2022-12-19T00:38:53.077Z,45753.97
2022-12-19T00:41:28.371Z,45761.97
2022-12-19T00:43:58.344Z,45725.97
2022-12-19T00:46:25.721Z,45737.97
2022-12-19T00:48:52.250Z,45751.97
2022-12-19T00:51:29.319Z,45729.97
2022-12-19T00:53:56.938Z,45724.00
2022-12-19T00:56:28.941Z,45739.97
2022-12-19T00:58:55.802Z,45749.97
2022-12-19T01:01:25.955Z,45753.97
2022-12-19T01:04:26.650Z,45735.97
2022-12-19T01:06:42.454Z,45745.97
2022-12-19T01:09:11.509Z,45725.97
2022-12-19T01:11:56.610Z,45741.97
2022-12-19T01:14:23.810Z,45761.97
2022-12-19T01:16:51.525Z,45733.97
2022-12-19T01:19:19.178Z,45769.97
2022-12-19T01:21:45.614Z,45745.97
2022-12-19T01:24:12.735Z,45751.97
2022-12-19T01:26:40.195Z,45741.97
2022-12-19T01:29:06.628Z,45733.97
2022-12-19T01:31:33.607Z,45725.97
2022-12-19T01:34:02.721Z,45737.97
2022-12-19T01:36:30.099Z,45733.97
2022-12-19T01:38:59.892Z,45751.97
2022-12-19T01:41:27.424Z,45747.97
2022-12-19T01:44:00.999Z,45733.97
2022-12-19T01:46:34.172Z,45718.00
2022-12-19T01:49:02.554Z,45737.97
2022-12-19T01:51:39.729Z,45743.97
2022-12-19T01:54:10.031Z,45722.00
2022-12-19T01:56:42.244Z,45733.97
2022-12-19T01:59:13.957Z,45733.97
2022-12-19T02:01:51.885Z,45745.97
2022-12-19T02:04:23.713Z,45729.97
2022-12-19T02:06:51.758Z,45741.97
2022-12-19T02:09:18.860Z,45737.97
2022-12-19T02:11:45.970Z,45724.00
2022-12-19T02:14:13.510Z,45716.00
2022-12-19T02:17:05.635Z,45725.97
2022-12-19T02:19:44.289Z,45731.97
2022-12-19T02:22:34.373Z,45741.97
2022-12-19T02:25:17.724Z,45743.97
2022-12-19T02:27:53.603Z,45733.97
2022-12-19T02:30:47.958Z,45743.97
2022-12-19T02:33:35.608Z,45725.97
2022-12-19T02:36:10.604Z,45722.00
2022-12-19T02:38:45.411Z,45714.00
2022-12-19T02:41:25.913Z,45725.97
2022-12-19T02:43:56.390Z,45733.97
2022-12-19T02:46:28.350Z,45718.00
2022-12-19T02:48:56.705Z,45724.00
2022-12-19T02:51:23.072Z,45722.00
2022-12-19T02:53:50.567Z,45724.00
2022-12-19T02:56:28.839Z,45714.00
2022-12-19T02:59:14.823Z,45725.97
2022-12-19T03:02:07.256Z,45725.97
2022-12-19T03:04:52.342Z,45718.00
2022-12-19T03:07:37.359Z,45724.00
2022-12-19T03:10:17.039Z,45733.97
2022-12-19T03:12:58.086Z,45720.00
2022-12-19T03:15:25.130Z,45718.00
2022-12-19T03:17:57.700Z,45690.00
2022-12-19T03:20:30.490Z,45718.00
2022-12-19T03:22:56.857Z,45727.97
2022-12-19T03:25:24.522Z,45720.00
2022-12-19T03:27:53.174Z,45722.00
2022-12-19T03:30:19.611Z,45733.97
2022-12-19T03:32:48.037Z,45714.00
2022-12-19T03:35:20.374Z,45718.00
2022-12-19T03:37:49.279Z,45718.00
2022-12-19T03:40:23.783Z,45727.97
2022-12-19T03:43:11.674Z,45718.00
2022-12-19T03:46:11.369Z,45706.00
2022-12-19T03:49:07.182Z,45714.00
2022-12-19T03:51:42.716Z,45708.00
2022-12-19T03:54:15.722Z,45714.00
2022-12-19T03:56:57.947Z,45702.00
2022-12-19T03:59:36.173Z,45690.00
2022-12-19T04:02:04.309Z,45722.00
2022-12-19T04:04:35.902Z,45708.00
2022-12-19T04:07:03.905Z,45724.00
2022-12-19T04:09:30.892Z,45722.00
2022-12-19T04:12:03.331Z,45710.00
2022-12-19T04:14:35.733Z,45702.00
2022-12-19T04:17:08.295Z,45710.00
2022-12-19T04:19:43.819Z,45716.00
2022-12-19T04:22:20.967Z,45706.00
2022-12-19T04:24:49.937Z,45686.00
2022-12-19T04:27:17.499Z,45690.00
2022-12-19T04:29:44.350Z,45700.00
2022-12-19T04:32:11.873Z,45710.00
2022-12-19T04:34:42.721Z,45722.00
2022-12-19T04:37:10.771Z,45708.00
2022-12-19T04:39:37.214Z,45710.00
2022-12-19T04:42:03.784Z,45731.97
2022-12-19T04:44:30.564Z,45722.00
2022-12-19T04:46:57.017Z,45714.00
2022-12-19T04:49:23.537Z,45722.00
2022-12-19T04:51:50.889Z,45706.00
2022-12-19T04:54:17.377Z,45714.00
2022-12-19T04:56:43.755Z,45706.00
2022-12-19T04:59:10.674Z,45720.00
2022-12-19T05:01:37.151Z,45722.00
2022-12-19T05:04:04.876Z,45710.00
2022-12-19T05:06:31.780Z,45704.00
2022-12-19T05:08:58.678Z,45702.00
2022-12-19T05:11:25.064Z,45712.00
2022-12-19T05:13:51.617Z,45698.00
2022-12-19T05:16:18.388Z,45729.97
2022-12-19T05:18:44.891Z,45727.97
2022-12-19T05:21:12.711Z,45686.00
2022-12-19T05:23:39.249Z,45706.00
2022-12-19T05:26:06.847Z,45704.00
2022-12-19T05:28:34.448Z,45704.00
2022-12-19T05:31:05.288Z,45702.00
2022-12-19T05:33:31.692Z,45700.00
2022-12-19T05:35:58.058Z,45702.00
2022-12-19T05:38:25.717Z,45708.00
2022-12-19T05:40:52.185Z,45718.00
2022-12-19T05:43:18.623Z,45718.00
2022-12-19T05:45:45.049Z,45722.00
2022-12-19T05:48:11.464Z,45725.97
2022-12-19T05:50:37.853Z,45706.00
2022-12-19T05:53:09.108Z,45692.00
2022-12-19T05:55:35.529Z,45684.00
2022-12-19T05:58:01.903Z,45725.97
2022-12-19T06:00:28.315Z,45706.00
2022-12-19T06:02:54.943Z,45694.00
2022-12-19T06:05:21.423Z,45700.00
2022-12-19T06:07:47.918Z,45710.00
2022-12-19T06:10:14.421Z,45729.97
2022-12-19T06:12:40.853Z,45686.00
2022-12-19T06:15:07.883Z,45700.00
2022-12-19T06:17:34.658Z,45706.00
2022-12-19T06:20:01.038Z,45666.03
2022-12-19T06:22:27.441Z,45696.00
2022-12-19T06:24:53.795Z,45690.00
2022-12-19T06:27:20.200Z,45700.00
2022-12-19T06:29:46.593Z,45694.00
2022-12-19T06:32:13.194Z,45696.00
2022-12-19T06:35:03.205Z,45702.00
2022-12-19T06:37:26.166Z,45708.00
2022-12-19T06:39:52.531Z,45694.00
2022-12-19T06:42:25.508Z,45694.00
2022-12-19T06:44:54.912Z,45708.00
2022-12-19T06:47:23.477Z,45692.00
2022-12-19T06:49:50.161Z,45698.00
2022-12-19T06:52:17.373Z,45706.00
2022-12-19T06:54:43.998Z,45692.00
2022-12-19T06:57:10.483Z,45706.00
2022-12-19T06:59:36.897Z,45694.00
2022-12-19T07:02:17.301Z,45686.00
2022-12-19T07:04:49.395Z,45686.00
2022-12-19T07:07:16.412Z,45694.00
2022-12-19T07:09:42.823Z,45686.00
2022-12-19T07:12:09.557Z,45680.03
2022-12-19T07:14:35.998Z,45678.03
2022-12-19T07:17:03.282Z,45694.00
2022-12-19T07:19:31.117Z,45688.00
2022-12-19T07:21:59.290Z,45670.03
2022-12-19T07:24:25.873Z,45706.00
2022-12-19T07:26:52.259Z,45698.00
2022-12-19T07:29:18.910Z,45700.00
2022-12-19T07:31:45.300Z,45688.00
2022-12-19T07:34:11.899Z,45700.00
2022-12-19T07:36:38.335Z,45694.00
2022-12-19T07:39:04.950Z,45700.00
2022-12-19T07:41:31.411Z,45678.03
2022-12-19T07:43:58.173Z,45678.03
2022-12-19T07:46:24.548Z,45698.00
2022-12-19T07:48:50.927Z,45660.03
2022-12-19T07:51:17.346Z,45686.00
2022-12-19T07:53:43.794Z,45694.00
2022-12-19T07:56:10.149Z,45678.03
2022-12-19T07:58:36.972Z,45664.03
2022-12-19T08:01:03.487Z,45666.03
2022-12-19T08:03:29.911Z,45668.03
2022-12-19T08:06:01.012Z,45674.03
2022-12-19T08:08:28.224Z,45662.03
2022-12-19T08:10:54.881Z,45680.03
2022-12-19T08:13:21.321Z,45666.03
2022-12-19T08:15:47.798Z,45682.00
2022-12-19T08:18:14.391Z,45678.03
2022-12-19T08:20:45.279Z,45702.00
2022-12-19T08:23:11.677Z,45658.03
2022-12-19T08:25:38.054Z,45680.03
2022-12-19T08:28:04.636Z,45674.03
2022-12-19T08:30:31.046Z,45702.00
2022-12-19T08:32:57.637Z,45678.03
2022-12-19T08:35:24.049Z,45658.03
2022-12-19T08:37:50.426Z,45666.03
2022-12-19T08:40:16.952Z,45656.03
2022-12-19T08:42:43.338Z,45650.03
2022-12-19T08:45:09.852Z,45682.00
2022-12-19T08:47:36.250Z,45674.03
2022-12-19T08:50:02.718Z,45646.03
2022-12-19T08:52:29.112Z,45686.00
2022-12-19T08:54:55.750Z,45666.03
2022-12-19T08:57:22.154Z,45662.03
2022-12-19T08:59:48.520Z,45652.03
2022-12-19T09:02:16.167Z,45680.03
2022-12-19T09:05:57.575Z,45666.03
2022-12-19T09:07:30.695Z,45650.03
2022-12-19T09:09:57.053Z,45670.03
2022-12-19T09:12:23.440Z,45666.03
2022-12-19T09:14:49.962Z,45674.03
2022-12-19T09:17:17.018Z,45656.03
2022-12-19T09:19:47.057Z,45674.03
2022-12-19T09:22:14.896Z,45670.03
2022-12-19T09:24:41.382Z,45670.03
2022-12-19T09:27:07.814Z,45674.03
2022-12-19T09:29:35.746Z,45650.03
2022-12-19T09:32:02.539Z,45666.03
2022-12-19T09:34:36.839Z,45660.03
2022-12-19T09:37:15.779Z,45672.03
2022-12-19T09:39:43.106Z,45682.00
2022-12-19T09:42:41.128Z,45662.03
2022-12-19T09:45:25.655Z,45668.03
2022-12-19T09:47:59.031Z,45662.03
2022-12-19T09:50:47.838Z,45626.06
2022-12-19T09:53:36.043Z,45658.03
2022-12-19T09:56:02.855Z,45662.03
2022-12-19T09:58:37.318Z,45656.03
2022-12-19T10:01:13.824Z,45662.03
2022-12-19T10:03:45.158Z,45666.03
2022-12-19T10:07:06.363Z,45656.03
2022-12-19T10:12:33.160Z,45638.06
2022-12-19T10:12:47.891Z,45652.03
2022-12-19T10:15:44.237Z,45654.03
2022-12-19T10:18:35.926Z,45654.03
2022-12-19T10:21:07.754Z,45678.03
2022-12-19T10:23:51.087Z,45656.03
2022-12-19T10:26:22.369Z,45666.03
2022-12-19T10:29:25.873Z,45642.03
2022-12-19T10:32:18.564Z,45640.03
2022-12-19T10:34:47.213Z,45654.03
2022-12-19T10:37:27.732Z,45646.03
2022-12-19T10:40:24.757Z,45674.03
2022-12-19T10:43:17.211Z,45648.03
2022-12-19T10:45:57.598Z,45646.03
2022-12-19T10:48:30.373Z,45638.06
2022-12-19T10:50:57.768Z,45656.03
2022-12-19T10:53:31.325Z,45634.06
2022-12-19T10:56:11.267Z,45636.06
2022-12-19T10:58:41.786Z,45656.03
2022-12-19T11:01:14.282Z,45656.03
2022-12-19T11:03:46.581Z,45640.03
2022-12-19T11:06:52.896Z,45650.03
2022-12-19T11:09:27.613Z,45624.06
2022-12-19T11:15:34.463Z,45650.03
2022-12-19T11:19:54.950Z,45634.06
2022-12-19T11:27:16.173Z,45656.03
2022-12-19T11:29:26.684Z,45650.03
2022-12-19T11:30:39.545Z,45630.06
2022-12-19T11:30:48.669Z,45638.06
2022-12-19T11:32:41.556Z,45630.06
2022-12-19T11:35:24.342Z,45652.03
2022-12-19T11:37:58.179Z,45630.06
2022-12-19T11:40:43.115Z,45638.06
2022-12-19T11:43:46.226Z,45646.03
2022-12-19T11:46:22.140Z,45626.06
2022-12-19T11:48:58.664Z,45646.03
2022-12-19T11:51:33.362Z,45642.03
2022-12-19T11:54:13.868Z,45638.06
2022-12-19T11:56:40.371Z,45644.03
2022-12-19T11:59:18.858Z,45654.03
2022-12-19T12:01:51.271Z,45642.03
2022-12-19T12:04:29.533Z,45628.06
2022-12-19T12:06:57.805Z,45634.06
2022-12-19T12:11:40.906Z,45614.06
2022-12-19T12:15:02.244Z,45628.06
2022-12-19T12:30:59.355Z,45634.06
2022-12-19T12:31:05.780Z,45622.06
2022-12-19T12:31:19.471Z,45654.03
2022-12-19T12:31:47.564Z,45634.06
2022-12-19T12:31:49.435Z,45622.06
2022-12-19T12:35:22.364Z,45640.03
2022-12-19T12:38:27.531Z,45614.06
2022-12-19T12:41:06.455Z,45642.03
2022-12-19T12:43:55.903Z,45618.06
2022-12-19T12:46:27.580Z,45598.06
2022-12-19T12:49:02.933Z,45620.06
2022-12-19T12:51:32.804Z,45614.06
2022-12-19T12:54:07.473Z,45634.06
2022-12-19T12:56:36.345Z,45618.06
2022-12-19T12:59:21.702Z,45624.06
2022-12-19T13:01:53.659Z,45602.06
2022-12-19T13:04:30.129Z,45626.06
2022-12-19T13:07:28.496Z,45616.06
2022-12-19T13:10:19.100Z,45604.06
2022-12-19T13:13:16.514Z,45622.06
2022-12-19T13:15:45.177Z,45604.06
2022-12-19T13:18:32.079Z,45628.06
2022-12-19T13:21:00.439Z,45604.06
2022-12-19T13:23:29.787Z,45614.06
2022-12-19T13:25:56.982Z,45622.06
2022-12-19T13:28:23.405Z,45590.09
2022-12-19T13:31:16.594Z,45602.06
2022-12-19T13:33:48.254Z,45600.06
2022-12-19T13:39:48.574Z,45576.09
2022-12-19T13:40:10.965Z,45602.06
2022-12-19T13:43:10.566Z,45622.06
2022-12-19T13:45:41.224Z,45604.06
2022-12-19T13:48:15.375Z,45622.06
2022-12-19T13:50:43.321Z,45596.06
2022-12-19T13:53:16.360Z,45598.06
2022-12-19T13:55:42.763Z,45614.06
2022-12-19T13:58:32.338Z,45612.06
2022-12-19T14:01:08.402Z,45586.09
2022-12-19T14:03:50.689Z,45606.06
2022-12-19T14:06:30.943Z,45616.06
2022-12-19T14:09:58.747Z,45610.06
2022-12-19T14:12:21.221Z,45600.06
2022-12-19T14:15:13.138Z,45614.06
2022-12-19T14:17:40.238Z,45616.06
2022-12-19T14:20:48.953Z,45586.09
2022-12-19T14:23:05.606Z,45606.06
2022-12-19T14:28:19.051Z,45598.06
2022-12-19T14:28:46.438Z,45622.06
2022-12-19T14:31:19.219Z,45606.06
2022-12-19T14:34:42.947Z,45598.06
2022-12-19T14:36:39.924Z,45626.06
2022-12-19T14:39:23.170Z,45606.06
2022-12-19T14:42:19.171Z,45608.06
2022-12-19T14:52:51.749Z,45602.06
2022-12-19T14:54:02.817Z,45624.06
2022-12-19T14:54:03.814Z,45620.06
2022-12-19T14:54:24.628Z,45594.09
2022-12-19T14:59:17.288Z,45610.06
2022-12-19T15:01:52.786Z,45618.06
2022-12-19T15:04:50.817Z,45620.06
2022-12-19T15:07:19.280Z,45600.06
2022-12-19T15:11:02.900Z,45608.06
2022-12-19T15:14:53.853Z,45604.06
2022-12-19T15:16:25.212Z,45594.09
2022-12-19T15:18:56.242Z,45588.09
2022-12-19T15:21:22.691Z,45614.06
2022-12-19T15:23:49.160Z,45594.09
2022-12-19T15:26:27.790Z,45618.06
2022-12-19T15:28:56.208Z,45590.09
2022-12-19T15:31:29.708Z,45602.06
2022-12-19T15:36:43.316Z,45622.06
2022-12-19T15:39:09.868Z,45596.06
2022-12-19T15:41:36.594Z,45604.06
2022-12-19T15:44:35.561Z,45620.06
2022-12-19T15:47:04.904Z,45594.09
2022-12-19T15:49:32.750Z,45594.09
2022-12-19T15:51:59.184Z,45596.06
2022-12-19T15:57:35.874Z,45600.06
2022-12-19T16:00:07.627Z,45614.06
2022-12-19T16:03:22.659Z,45602.06
2022-12-19T16:05:22.797Z,45584.09
2022-12-19T16:07:49.732Z,45602.06
2022-12-19T16:10:16.326Z,45594.09
2022-12-19T16:12:55.318Z,45614.06
2022-12-19T16:15:29.338Z,45602.06
2022-12-19T16:17:57.667Z,45620.06
2022-12-19T16:20:30.424Z,45598.06
2022-12-19T16:22:57.746Z,45594.09
2022-12-19T16:25:31.897Z,45592.09
2022-12-19T16:27:59.711Z,45586.09
2022-12-19T16:30:30.843Z,45598.06
2022-12-19T16:32:57.458Z,45578.09
2022-12-19T16:35:55.111Z,45612.06
2022-12-19T16:38:12.953Z,45594.09
2022-12-19T16:40:39.565Z,45608.06
2022-12-19T16:43:13.624Z,45598.06
2022-12-19T16:45:40.076Z,45614.06
2022-12-19T16:48:22.326Z,45614.06
2022-12-19T16:50:49.383Z,45606.06
2022-12-19T16:53:16.755Z,45614.06
2022-12-19T16:55:44.222Z,45586.09
2022-12-19T16:58:18.712Z,45594.09
2022-12-19T17:00:45.512Z,45594.09
2022-12-19T17:03:41.331Z,45610.06
2022-12-19T17:06:17.027Z,45610.06
2022-12-19T17:08:43.886Z,45606.06
2022-12-19T17:11:20.747Z,45586.09
2022-12-19T17:14:02.309Z,45610.06
2022-12-19T17:16:30.931Z,45580.09
2022-12-19T17:18:58.089Z,45614.06
2022-12-19T17:21:24.546Z,45598.06
2022-12-19T17:23:51.645Z,45602.06
2022-12-19T17:26:18.610Z,45590.09
2022-12-19T17:28:48.003Z,45566.09
2022-12-19T17:31:27.218Z,45590.09
2022-12-19T17:33:58.385Z,45612.06
2022-12-19T17:36:37.135Z,45606.06
2022-12-19T17:39:21.438Z,45590.09
2022-12-19T17:41:49.372Z,45586.09
2022-12-19T17:44:16.137Z,45604.06
2022-12-19T17:46:43.586Z,45602.06
2022-12-19T17:49:31.545Z,45612.06
2022-12-19T17:51:59.621Z,45610.06
2022-12-19T17:54:27.180Z,45610.06
2022-12-19T17:56:53.807Z,45594.09
2022-12-19T17:59:20.842Z,45606.06
2022-12-19T18:01:47.679Z,45614.06
2022-12-19T18:04:18.802Z,45596.06
2022-12-19T18:06:45.951Z,45598.06
2022-12-19T18:09:19.717Z,45602.06
2022-12-19T18:11:47.150Z,45588.09
2022-12-19T18:14:14.336Z,45582.09
2022-12-19T18:16:41.321Z,45602.06
2022-12-19T18:19:17.329Z,45592.09
2022-12-19T18:21:43.784Z,45580.09
2022-12-19T18:24:12.063Z,45586.09
2022-12-19T18:26:38.531Z,45586.09
2022-12-19T18:29:04.921Z,45586.09
2022-12-19T18:31:31.434Z,45602.06
2022-12-19T18:34:07.096Z,45602.06
2022-12-19T18:36:40.162Z,45602.06
2022-12-19T18:39:22.668Z,45586.09
2022-12-19T18:41:50.139Z,45614.06
2022-12-19T18:44:17.172Z,45586.09
2022-12-19T18:46:43.809Z,45604.06
2022-12-19T18:49:13.016Z,45566.09
2022-12-19T18:51:39.701Z,45590.09
2022-12-19T18:54:20.492Z,45592.09
2022-12-19T18:56:47.416Z,45614.06
2022-12-19T18:59:13.890Z,45584.09
2022-12-19T19:01:46.440Z,45594.09
2022-12-19T19:04:17.382Z,45582.09
2022-12-19T19:06:50.860Z,45594.09
2022-12-19T19:09:19.489Z,45594.09
2022-12-19T19:11:56.652Z,45606.06
2022-12-19T19:14:23.182Z,45592.09
2022-12-19T19:16:49.620Z,45602.06
2022-12-19T19:19:18.134Z,45598.06
2022-12-19T19:21:44.939Z,45594.09
2022-12-19T19:24:20.933Z,45608.06
2022-12-19T19:26:47.400Z,45596.06
2022-12-19T19:29:14.809Z,45594.09
2022-12-19T19:31:45.750Z,45570.09
2022-12-19T19:34:24.207Z,45582.09
2022-12-19T19:36:54.660Z,45598.06
2022-12-19T19:39:23.059Z,45574.09
2022-12-19T19:41:49.518Z,45598.06
2022-12-19T19:44:15.895Z,45578.09
2022-12-19T19:46:42.330Z,45562.09
2022-12-19T19:49:09.271Z,45604.06
2022-12-19T19:51:36.045Z,45578.09
2022-12-19T19:54:02.482Z,45564.09
2022-12-19T19:56:29.005Z,45566.09
2022-12-19T19:58:59.331Z,45566.09
2022-12-19T20:01:26.285Z,45570.09
2022-12-19T20:03:52.910Z,45546.13
2022-12-19T20:06:19.649Z,45590.09
2022-12-19T20:08:46.175Z,45590.09
2022-12-19T20:11:13.558Z,45574.09
2022-12-19T20:13:40.006Z,45568.09
2022-12-19T20:16:09.943Z,45570.09
2022-12-19T20:18:37.883Z,45590.09
2022-12-19T20:21:12.312Z,45582.09
2022-12-19T20:23:41.355Z,45582.09
2022-12-19T20:26:07.913Z,45582.09
2022-12-19T20:28:34.804Z,45566.09
2022-12-19T20:31:01.321Z,45562.09
2022-12-19T20:33:27.822Z,45562.09
2022-12-19T20:35:58.750Z,45576.09
2022-12-19T20:38:25.158Z,45570.09
2022-12-19T20:40:52.883Z,45556.09
2022-12-19T20:43:19.777Z,45570.09
2022-12-19T20:45:46.374Z,45582.09
2022-12-19T20:48:12.832Z,45584.09
2022-12-19T20:50:43.177Z,45542.13
2022-12-19T20:53:09.873Z,45572.09
2022-12-19T20:55:36.270Z,45562.09
2022-12-19T20:58:02.682Z,45566.09
2022-12-19T21:00:29.104Z,45566.09
2022-12-19T21:03:26.555Z,45564.09
2022-12-19T21:05:42.056Z,45574.09
2022-12-19T21:08:08.434Z,45570.09
2022-12-19T21:10:35.241Z,45554.09
2022-12-19T21:13:01.678Z,45578.09
2022-12-19T21:15:28.141Z,45568.09
2022-12-19T21:17:54.693Z,45554.09
2022-12-19T21:20:21.077Z,45550.13
2022-12-19T21:22:47.467Z,45566.09
2022-12-19T21:25:13.962Z,45576.09
2022-12-19T21:27:40.731Z,45572.09
2022-12-19T21:30:07.830Z,45568.09
2022-12-19T21:32:34.506Z,45562.09
2022-12-19T21:35:00.919Z,45570.09
2022-12-19T21:37:27.286Z,45572.09
2022-12-19T21:39:53.811Z,45572.09
2022-12-19T21:42:20.203Z,45578.09
2022-12-19T21:44:46.881Z,45574.09
2022-12-19T21:47:13.317Z,45538.13
2022-12-19T21:49:40.206Z,45554.09
2022-12-19T21:52:06.648Z,45550.13
2022-12-19T21:54:33.041Z,45550.13
2022-12-19T21:56:59.429Z,45562.09
2022-12-19T21:59:25.856Z,45554.09
2022-12-19T22:01:52.496Z,45562.09
2022-12-19T22:04:21.816Z,45542.13
2022-12-19T22:06:49.997Z,45550.13
2022-12-19T22:09:19.921Z,45562.09
2022-12-19T22:11:46.644Z,45554.09
2022-12-19T22:14:14.580Z,45560.09
2022-12-19T22:16:41.613Z,45554.09
2022-12-19T22:19:15.601Z,45550.13
2022-12-19T22:21:42.794Z,45558.09
2022-12-19T22:24:11.417Z,45548.13
2022-12-19T22:26:38.191Z,45562.09
2022-12-19T22:29:09.700Z,45550.13
2022-12-19T22:31:38.081Z,45566.09
2022-12-19T22:34:07.139Z,45546.13
2022-12-19T22:36:35.935Z,45558.09
2022-12-19T22:39:04.786Z,45562.09
2022-12-19T22:41:32.767Z,45558.09
2022-12-19T22:43:59.205Z,45534.13
2022-12-19T22:46:28.650Z,45570.09
2022-12-19T22:48:57.806Z,45552.13
2022-12-19T22:51:25.458Z,45554.09
2022-12-19T22:53:52.170Z,45556.09
2022-12-19T22:56:20.567Z,45548.13
2022-12-19T22:58:49.380Z,45544.13
2022-12-19T23:01:29.372Z,45538.13
2022-12-19T23:03:58.737Z,45556.09
2022-12-19T23:06:27.364Z,45534.13
2022-12-19T23:08:54.023Z,45546.13
2022-12-19T23:11:24.985Z,45528.13
2022-12-19T23:13:51.558Z,45546.13
2022-12-19T23:16:18.618Z,45550.13
2022-12-19T23:18:46.262Z,45552.13
2022-12-19T23:21:21.796Z,45550.13
2022-12-19T23:23:50.302Z,45548.13
2022-12-19T23:26:24.713Z,45566.09
2022-12-19T23:28:53.799Z,45540.13
2022-12-19T23:31:20.274Z,45542.13
2022-12-19T23:33:46.855Z,45538.13
2022-12-19T23:36:13.897Z,45538.13
2022-12-19T23:38:42.040Z,45534.13
2022-12-19T23:41:10.916Z,45538.13
2022-12-19T23:43:38.289Z,45554.09
2022-12-19T23:46:06.935Z,45546.13
2022-12-19T23:48:33.733Z,45546.13
2022-12-19T23:51:01.697Z,45560.09
2022-12-19T23:53:28.201Z,45542.13
2022-12-19T23:55:54.664Z,45538.13
2022-12-19T23:58:24.665Z,45534.13
